createdAt,value
2018-07-13T00:00:16.024Z,1.90
2018-07-13T00:02:44.902Z,2.10
2018-07-13T00:05:14.005Z,2.65
2018-07-13T00:07:43.176Z,2.60
2018-07-13T00:10:12.100Z,2.55
2018-07-13T00:12:41.339Z,2.55
2018-07-13T00:15:11.432Z,2.35
2018-07-13T00:17:40.869Z,2.47
2018-07-13T00:20:10.045Z,2.17
2018-07-13T00:22:39.088Z,3.03
2018-07-13T00:25:08.535Z,2.53
2018-07-13T00:27:38.736Z,3.10
2018-07-13T00:30:08.108Z,2.92
2018-07-13T00:32:37.531Z,3.10
2018-07-13T00:35:06.740Z,2.70
2018-07-13T00:37:36.030Z,2.70
2018-07-13T00:40:05.547Z,2.70
2018-07-13T00:42:34.695Z,2.80
2018-07-13T00:45:03.949Z,2.00
2018-07-13T00:47:32.999Z,2.30
2018-07-13T00:50:01.920Z,2.30
2018-07-13T00:52:30.845Z,2.37
2018-07-13T00:54:59.708Z,2.27
2018-07-13T00:57:28.627Z,2.40
2018-07-13T00:59:57.515Z,2.50
2018-07-13T01:02:26.448Z,2.50
2018-07-13T01:04:55.464Z,2.60
2018-07-13T01:07:24.353Z,2.40
2018-07-13T01:09:53.245Z,2.60
2018-07-13T01:12:22.144Z,2.50
2018-07-13T01:14:50.998Z,2.35
2018-07-13T01:17:23.657Z,2.42
2018-07-13T01:19:52.537Z,2.25
2018-07-13T01:22:21.413Z,2.30
2018-07-13T01:24:50.300Z,2.50
2018-07-13T01:27:19.168Z,2.45
2018-07-13T01:29:48.057Z,2.75
2018-07-13T01:32:16.947Z,2.40
2018-07-13T01:34:45.868Z,2.42
2018-07-13T01:37:14.802Z,2.60
2018-07-13T01:39:43.782Z,2.62
2018-07-13T01:42:12.896Z,2.40
2018-07-13T01:44:42.145Z,2.40
2018-07-13T01:47:11.272Z,2.20
2018-07-13T01:49:40.565Z,2.08
2018-07-13T01:52:09.676Z,2.10
2018-07-13T01:54:38.762Z,1.85
2018-07-13T01:57:07.849Z,2.12
2018-07-13T01:59:37.001Z,2.30
2018-07-13T02:02:06.005Z,1.90
2018-07-13T02:04:35.977Z,2.20
2018-07-13T02:07:05.210Z,2.52
2018-07-13T02:09:34.251Z,2.30
2018-07-13T02:12:03.672Z,2.25
2018-07-13T02:14:32.671Z,2.12
2018-07-13T02:17:01.549Z,2.10
2018-07-13T02:19:30.440Z,2.12
2018-07-13T02:21:59.314Z,2.12
2018-07-13T02:24:28.200Z,2.30
2018-07-13T02:26:57.109Z,2.22
2018-07-13T02:29:25.996Z,1.80
2018-07-13T02:31:54.909Z,2.12
2018-07-13T02:34:23.784Z,2.10
2018-07-13T02:36:52.733Z,2.50
2018-07-13T02:39:21.601Z,2.07
2018-07-13T02:41:50.676Z,1.90
2018-07-13T02:44:19.557Z,2.62
2018-07-13T02:46:48.548Z,2.40
2018-07-13T02:49:17.427Z,1.92
2018-07-13T02:51:46.410Z,2.20
2018-07-13T02:54:15.312Z,2.40
2018-07-13T02:56:44.390Z,2.30
2018-07-13T02:59:13.333Z,2.30
2018-07-13T03:01:42.428Z,2.15
2018-07-13T03:04:11.506Z,2.22
2018-07-13T03:06:40.740Z,2.45
2018-07-13T03:09:11.604Z,2.30
2018-07-13T03:11:41.026Z,2.05
2018-07-13T03:14:10.045Z,2.27
2018-07-13T03:16:39.462Z,2.55
2018-07-13T03:19:09.029Z,2.27
2018-07-13T03:21:38.171Z,2.43
2018-07-13T03:24:07.253Z,2.40
2018-07-13T03:26:36.776Z,1.97
2018-07-13T03:29:05.913Z,2.40
2018-07-13T03:31:34.980Z,2.25
2018-07-13T03:34:03.985Z,2.55
2018-07-13T03:36:32.867Z,1.95
2018-07-13T03:39:01.760Z,2.70
2018-07-13T03:41:30.640Z,2.27
2018-07-13T03:43:59.534Z,2.30
2018-07-13T03:46:28.388Z,2.75
2018-07-13T03:48:57.295Z,2.95
2018-07-13T03:51:26.166Z,2.27
2018-07-13T03:53:55.081Z,2.60
2018-07-13T03:56:23.960Z,2.40
2018-07-13T03:58:52.868Z,2.55
2018-07-13T04:01:21.741Z,2.20
2018-07-13T04:03:50.689Z,2.42
2018-07-13T04:06:19.681Z,2.30
2018-07-13T04:08:48.590Z,2.50
2018-07-13T04:11:17.501Z,2.60
2018-07-13T04:13:46.429Z,2.30
2018-07-13T04:16:15.337Z,2.27
2018-07-13T04:18:44.261Z,2.80
2018-07-13T04:21:13.404Z,2.33
2018-07-13T04:23:42.596Z,2.83
2018-07-13T04:26:11.751Z,2.70
2018-07-13T04:28:40.968Z,2.37
2018-07-13T04:31:10.073Z,2.50
2018-07-13T04:33:39.232Z,2.72
2018-07-13T04:36:08.488Z,2.77
2018-07-13T04:38:37.665Z,2.55
2018-07-13T04:41:07.035Z,2.20
2018-07-13T04:43:36.104Z,2.72
2018-07-13T04:46:05.278Z,2.58
2018-07-13T04:48:34.593Z,2.80
2018-07-13T04:51:03.668Z,2.30
2018-07-13T04:53:32.641Z,2.50
2018-07-13T04:56:01.645Z,2.58
2018-07-13T04:58:30.653Z,2.17
2018-07-13T05:00:59.683Z,2.37
2018-07-13T05:03:28.704Z,2.80
2018-07-13T05:05:57.713Z,2.90
2018-07-13T05:08:26.705Z,2.50
2018-07-13T05:10:55.632Z,2.42
2018-07-13T05:13:24.528Z,2.83
2018-07-13T05:15:53.661Z,2.58
2018-07-13T05:18:22.549Z,2.60
2018-07-13T05:20:51.512Z,2.67
2018-07-13T05:23:20.476Z,2.98
2018-07-13T05:25:49.521Z,3.33
2018-07-13T05:28:18.536Z,3.47
2018-07-13T05:30:47.747Z,3.05
2018-07-13T05:33:16.732Z,3.30
2018-07-13T05:35:45.708Z,3.20
2018-07-13T05:38:14.665Z,2.80
2018-07-13T05:40:43.671Z,2.70
2018-07-13T05:43:12.718Z,2.92
2018-07-13T05:45:41.837Z,3.10
2018-07-13T05:48:11.188Z,2.83
2018-07-13T05:50:40.513Z,2.80
2018-07-13T05:53:09.875Z,2.98
2018-07-13T05:55:39.039Z,2.40
2018-07-13T05:58:08.752Z,2.70
2018-07-13T06:00:38.152Z,2.83
2018-07-13T06:03:07.391Z,2.70
2018-07-13T06:05:36.550Z,2.60
2018-07-13T06:08:06.135Z,3.00
2018-07-13T06:10:35.485Z,2.83
2018-07-13T06:13:04.731Z,2.97
2018-07-13T06:15:33.743Z,2.90
2018-07-13T06:18:02.682Z,2.77
2018-07-13T06:20:31.620Z,2.52
2018-07-13T06:23:00.578Z,2.60
2018-07-13T06:25:29.488Z,2.70
2018-07-13T06:27:58.536Z,3.17
2018-07-13T06:30:27.616Z,3.20
2018-07-13T06:32:56.739Z,2.92
2018-07-13T06:35:25.817Z,2.85
2018-07-13T06:37:54.999Z,3.10
2018-07-13T06:40:24.020Z,3.05
2018-07-13T06:42:52.955Z,2.92
2018-07-13T06:45:21.877Z,2.70
2018-07-13T06:47:50.826Z,2.52
2018-07-13T06:50:19.820Z,2.30
2018-07-13T06:52:48.779Z,2.60
2018-07-13T06:55:18.324Z,2.77
2018-07-13T06:57:58.324Z,2.60
2018-07-13T07:01:05.141Z,2.27
2018-07-13T07:03:36.281Z,2.37
2018-07-13T07:06:08.793Z,3.08
2018-07-13T07:08:39.108Z,2.98
2018-07-13T07:11:08.325Z,2.40
2018-07-13T07:13:41.517Z,2.50
2018-07-13T07:16:10.727Z,2.47
2018-07-13T07:18:39.912Z,2.42
2018-07-13T07:21:09.369Z,3.33
2018-07-13T07:23:38.760Z,3.65
2018-07-13T07:26:08.077Z,3.70
2018-07-13T07:28:37.208Z,3.40
2018-07-13T07:31:06.580Z,3.52
2018-07-13T07:33:35.654Z,2.92
2018-07-13T07:36:04.701Z,2.70
2018-07-13T07:38:33.791Z,3.12
2018-07-13T07:41:02.793Z,2.45
2018-07-13T07:43:31.794Z,1.80
2018-07-13T07:46:00.744Z,2.30
2018-07-13T07:48:29.708Z,2.30
2018-07-13T07:50:58.624Z,2.50
2018-07-13T07:53:27.520Z,2.50
2018-07-13T07:55:56.553Z,2.70
2018-07-13T07:58:25.564Z,4.42
2018-07-13T08:00:54.576Z,3.37
2018-07-13T08:03:23.585Z,3.92
2018-07-13T08:05:52.622Z,3.58
2018-07-13T08:08:21.517Z,4.83
2018-07-13T08:10:50.432Z,4.42
2018-07-13T08:13:19.303Z,4.92
2018-07-13T08:15:48.247Z,5.70
2018-07-13T08:18:17.148Z,5.00
2018-07-13T08:20:47.251Z,5.20
2018-07-13T08:23:16.316Z,5.03
2018-07-13T08:25:46.168Z,4.67
2018-07-13T08:28:15.872Z,4.23
2018-07-13T08:30:53.750Z,3.60
2018-07-13T08:33:22.628Z,3.60
2018-07-13T08:35:51.525Z,3.90
2018-07-13T08:38:20.469Z,3.72
2018-07-13T08:40:49.372Z,3.70
2018-07-13T08:43:18.429Z,3.67
2018-07-13T08:45:47.340Z,3.70
2018-07-13T08:48:16.356Z,3.70
2018-07-13T08:50:45.377Z,3.40
2018-07-13T08:53:14.440Z,3.00
2018-07-13T08:55:43.491Z,3.20
2018-07-13T08:58:12.669Z,3.22
2018-07-13T09:00:41.793Z,2.90
2018-07-13T09:03:11.140Z,3.30
2018-07-13T09:05:40.365Z,3.20
2018-07-13T09:08:09.548Z,2.85
2018-07-13T09:10:39.355Z,2.90
2018-07-13T09:13:08.533Z,3.17
2018-07-13T09:15:37.701Z,3.17
2018-07-13T09:18:07.300Z,3.15
2018-07-13T09:20:36.625Z,3.10
2018-07-13T09:23:05.874Z,3.10
2018-07-13T09:25:35.186Z,3.53
2018-07-13T09:28:04.245Z,2.90
2018-07-13T09:30:33.533Z,4.03
2018-07-13T09:33:02.476Z,3.67
2018-07-13T09:35:31.385Z,4.20
2018-07-13T09:38:00.276Z,3.77
2018-07-13T09:40:29.333Z,3.47
2018-07-13T09:42:59.567Z,3.62
2018-07-13T09:45:28.628Z,2.70
2018-07-13T09:47:58.007Z,2.97
2018-07-13T09:50:26.948Z,3.50
2018-07-13T09:52:56.204Z,3.03
2018-07-13T09:55:25.156Z,3.47
2018-07-13T09:57:54.029Z,3.52
2018-07-13T10:00:25.854Z,3.10
2018-07-13T10:02:54.726Z,2.75
2018-07-13T10:05:23.709Z,2.83
2018-07-13T10:07:52.620Z,2.50
2018-07-13T10:10:21.592Z,2.67
2018-07-13T10:12:50.554Z,3.00
2018-07-13T10:15:19.552Z,3.37
2018-07-13T10:17:48.490Z,3.33
2018-07-13T10:20:17.496Z,3.25
2018-07-13T10:22:46.517Z,3.30
2018-07-13T10:25:15.577Z,2.90
2018-07-13T10:27:44.645Z,2.50
2018-07-13T10:30:14.196Z,2.98
2018-07-13T10:32:44.316Z,2.60
2018-07-13T10:35:13.381Z,2.23
2018-07-13T10:37:43.014Z,2.37
2018-07-13T10:40:12.029Z,2.45
2018-07-13T10:42:41.097Z,2.47
2018-07-13T10:45:10.318Z,2.70
2018-07-13T10:47:39.525Z,3.20
2018-07-13T10:50:08.812Z,3.10
2018-07-13T10:52:37.925Z,2.80
2018-07-13T10:55:07.258Z,2.77
2018-07-13T10:57:36.585Z,3.30
2018-07-13T11:00:05.741Z,3.50
2018-07-13T11:02:34.942Z,3.20
2018-07-13T11:05:04.344Z,3.30
2018-07-13T11:07:33.346Z,3.17
2018-07-13T11:10:02.234Z,3.10
2018-07-13T11:12:31.171Z,2.65
2018-07-13T11:15:00.313Z,2.60
2018-07-13T11:17:29.252Z,2.20
2018-07-13T11:19:58.320Z,2.35
2018-07-13T11:22:27.606Z,2.20
2018-07-13T11:24:56.473Z,1.95
2018-07-13T11:27:25.359Z,1.70
2018-07-13T11:29:54.360Z,2.00
2018-07-13T11:32:23.318Z,2.15
2018-07-13T11:34:52.180Z,2.37
2018-07-13T11:37:21.170Z,2.40
2018-07-13T11:39:50.038Z,2.60
2018-07-13T11:42:18.932Z,2.30
2018-07-13T11:44:47.970Z,2.20
2018-07-13T11:47:16.969Z,2.00
2018-07-13T11:49:46.168Z,2.30
2018-07-13T11:52:15.170Z,2.08
2018-07-13T11:54:44.948Z,1.90
2018-07-13T11:57:14.237Z,2.17
2018-07-13T11:59:43.608Z,1.85
2018-07-13T12:02:13.080Z,2.10
2018-07-13T12:04:42.272Z,1.90
2018-07-13T12:07:11.558Z,1.60
2018-07-13T12:09:41.164Z,1.70
2018-07-13T12:12:10.243Z,1.70
2018-07-13T12:14:42.364Z,1.67
2018-07-13T12:17:11.661Z,1.87
2018-07-13T12:19:40.834Z,2.20
2018-07-13T12:22:10.381Z,2.43
2018-07-13T12:24:40.045Z,2.47
2018-07-13T12:27:09.552Z,2.42
2018-07-13T12:29:39.295Z,2.73
2018-07-13T12:32:09.008Z,2.87
2018-07-13T12:34:38.518Z,2.30
2018-07-13T12:37:08.604Z,1.65
2018-07-13T12:39:38.209Z,1.40
2018-07-13T12:42:07.512Z,1.80
2018-07-13T12:44:37.002Z,2.10
2018-07-13T12:47:06.310Z,2.08
2018-07-13T12:49:35.764Z,2.35
2018-07-13T12:52:05.024Z,2.20
2018-07-13T12:54:34.280Z,2.10
2018-07-13T12:57:03.226Z,2.10
2018-07-13T12:59:32.182Z,1.70
2018-07-13T13:02:01.093Z,1.87
2018-07-13T13:04:30.074Z,1.70
2018-07-13T13:06:58.992Z,1.72
2018-07-13T13:09:27.896Z,1.50
2018-07-13T13:11:56.779Z,1.27
2018-07-13T13:14:25.701Z,1.42
2018-07-13T13:16:54.568Z,1.40
2018-07-13T13:19:23.428Z,1.42
2018-07-13T13:21:52.444Z,1.60
2018-07-13T13:24:21.276Z,1.57
2018-07-13T13:26:50.201Z,1.90
2018-07-13T13:29:19.123Z,2.00
2018-07-13T13:31:48.033Z,1.98
2018-07-13T13:34:16.928Z,1.82
2018-07-13T13:36:45.832Z,1.80
2018-07-13T13:39:14.720Z,2.00
2018-07-13T13:41:43.696Z,1.70
2018-07-13T13:44:12.720Z,1.65
2018-07-13T13:46:41.841Z,1.70
2018-07-13T13:49:10.956Z,2.10
2018-07-13T13:51:40.064Z,2.10
2018-07-13T13:54:09.138Z,1.80
2018-07-13T13:56:38.495Z,2.12
2018-07-13T13:59:07.708Z,1.90
2018-07-13T14:01:36.841Z,2.20
2018-07-13T14:04:06.199Z,2.10
2018-07-13T14:06:36.069Z,1.80
2018-07-13T14:09:06.547Z,1.97
2018-07-13T14:11:35.965Z,1.95
2018-07-13T14:14:05.150Z,1.75
2018-07-13T14:16:34.261Z,1.70
2018-07-13T14:19:03.253Z,1.57
2018-07-13T14:21:32.242Z,1.40
2018-07-13T14:24:01.292Z,1.40
2018-07-13T14:26:30.153Z,1.40
2018-07-13T14:28:59.361Z,1.32
2018-07-13T14:31:28.261Z,1.40
2018-07-13T14:33:57.150Z,1.42
2018-07-13T14:36:26.036Z,1.47
2018-07-13T14:38:54.928Z,1.90
2018-07-13T14:41:23.798Z,1.87
2018-07-13T14:43:52.735Z,1.85
2018-07-13T14:46:21.620Z,2.00
2018-07-13T14:48:50.706Z,1.80
2018-07-13T14:51:19.639Z,1.77
2018-07-13T14:53:48.589Z,1.87
2018-07-13T14:56:17.449Z,1.60
2018-07-13T14:58:46.748Z,1.72
2018-07-13T15:01:16.215Z,1.47
2018-07-13T15:03:45.719Z,1.40
2018-07-13T15:06:15.277Z,1.42
2018-07-13T15:08:44.445Z,1.30
2018-07-13T15:11:13.319Z,1.50
2018-07-13T15:13:42.527Z,1.30
2018-07-13T15:16:11.741Z,1.35
2018-07-13T15:18:41.089Z,1.40
2018-07-13T15:21:10.233Z,1.35
2018-07-13T15:23:39.381Z,1.67
2018-07-13T15:26:08.562Z,1.50
2018-07-13T15:28:38.250Z,1.50
2018-07-13T15:31:07.655Z,1.57
2018-07-13T15:33:37.180Z,1.63
2018-07-13T15:36:06.517Z,1.57
2018-07-13T15:38:35.689Z,1.87
2018-07-13T15:41:04.981Z,1.72
2018-07-13T15:43:34.017Z,1.50
2018-07-13T15:46:03.389Z,1.50
2018-07-13T15:48:32.392Z,1.57
2018-07-13T15:51:01.300Z,1.60
2018-07-13T15:53:30.156Z,1.77
2018-07-13T15:55:59.804Z,1.50
2018-07-13T15:58:29.370Z,1.50
2018-07-13T16:00:58.262Z,1.42
2018-07-13T16:03:27.168Z,1.33
2018-07-13T16:05:56.129Z,1.40
2018-07-13T16:08:24.984Z,1.30
2018-07-13T16:10:53.911Z,1.40
2018-07-13T16:13:22.798Z,1.30
2018-07-13T16:15:51.741Z,1.50
2018-07-13T16:18:20.624Z,1.40
2018-07-13T16:20:49.534Z,1.50
2018-07-13T16:23:18.411Z,1.60
2018-07-13T16:25:47.328Z,1.40
2018-07-13T16:28:16.266Z,1.40
2018-07-13T16:30:45.153Z,1.32
2018-07-13T16:33:14.078Z,1.50
2018-07-13T16:35:43.291Z,1.40
2018-07-13T16:38:12.379Z,1.50
2018-07-13T16:40:42.220Z,1.22
2018-07-13T16:43:11.412Z,1.40
2018-07-13T16:45:40.429Z,1.70
2018-07-13T16:48:09.769Z,1.70
2018-07-13T16:50:38.961Z,1.22
2018-07-13T16:53:08.159Z,1.40
2018-07-13T16:55:37.274Z,1.45
2018-07-13T16:58:06.504Z,1.35
2018-07-13T17:00:36.568Z,1.30
2018-07-13T17:03:06.095Z,1.37
2018-07-13T17:05:35.344Z,1.32
2018-07-13T17:08:04.475Z,1.20
2018-07-13T17:10:33.385Z,1.30
2018-07-13T17:13:02.303Z,1.20
2018-07-13T17:15:31.503Z,1.27
2018-07-13T17:18:00.794Z,1.30
2018-07-13T17:20:29.879Z,1.20
2018-07-13T17:22:58.741Z,1.33
2018-07-13T17:25:27.871Z,1.30
2018-07-13T17:27:56.920Z,1.32
2018-07-13T17:30:25.909Z,1.52
2018-07-13T17:32:54.773Z,1.20
2018-07-13T17:35:23.831Z,1.47
2018-07-13T17:37:52.884Z,1.25
2018-07-13T17:40:21.793Z,1.40
2018-07-13T17:42:50.744Z,1.12
2018-07-13T17:45:19.600Z,1.30
2018-07-13T17:47:48.463Z,1.40
2018-07-13T17:50:17.389Z,1.20
2018-07-13T17:52:46.269Z,1.20
2018-07-13T17:55:15.184Z,1.10
2018-07-13T17:57:44.037Z,1.42
2018-07-13T18:00:13.189Z,1.50
2018-07-13T18:02:42.113Z,1.27
2018-07-13T18:05:11.416Z,1.35
2018-07-13T18:07:40.977Z,1.22
2018-07-13T18:10:10.057Z,1.20
2018-07-13T18:12:39.512Z,1.27
2018-07-13T18:15:09.704Z,1.53
2018-07-13T18:17:38.889Z,1.70
2018-07-13T18:20:09.109Z,1.60
2018-07-13T18:22:39.124Z,1.50
2018-07-13T18:25:08.552Z,1.32
2018-07-13T18:27:37.861Z,1.52
2018-07-13T18:30:07.182Z,1.30
2018-07-13T18:32:36.650Z,1.30
2018-07-13T18:35:06.131Z,1.47
2018-07-13T18:37:35.292Z,1.50
2018-07-13T18:40:04.387Z,1.10
2018-07-13T18:42:33.541Z,1.17
2018-07-13T18:45:02.580Z,1.25
2018-07-13T18:47:31.510Z,1.20
2018-07-13T18:50:00.563Z,1.25
2018-07-13T18:52:29.606Z,1.20
2018-07-13T18:54:58.492Z,1.20
2018-07-13T18:57:27.549Z,1.30
2018-07-13T18:59:56.447Z,1.30
2018-07-13T19:02:25.737Z,1.30
2018-07-13T19:04:54.656Z,1.17
2018-07-13T19:07:23.785Z,1.32
2018-07-13T19:09:52.652Z,1.27
2018-07-13T19:12:21.548Z,1.17
2018-07-13T19:14:50.432Z,1.20
2018-07-13T19:17:19.337Z,1.10
2018-07-13T19:19:48.233Z,1.20
2018-07-13T19:22:17.155Z,1.30
2018-07-13T19:24:46.028Z,1.20
2018-07-13T19:27:14.924Z,1.20
2018-07-13T19:29:43.881Z,1.20
2018-07-13T19:32:12.780Z,1.15
2018-07-13T19:34:41.714Z,1.30
2018-07-13T19:37:10.836Z,1.50
2018-07-13T19:39:39.939Z,1.07
2018-07-13T19:42:08.992Z,1.40
2018-07-13T19:44:38.129Z,1.20
2018-07-13T19:47:07.482Z,1.20
2018-07-13T19:49:36.616Z,1.20
2018-07-13T19:52:06.013Z,1.30
2018-07-13T19:54:34.985Z,1.05
2018-07-13T19:57:03.912Z,1.30
2018-07-13T19:59:32.859Z,1.30
2018-07-13T20:02:01.756Z,1.00
2018-07-13T20:04:30.668Z,1.25
2018-07-13T20:06:59.564Z,1.30
2018-07-13T20:09:28.480Z,1.17
2018-07-13T20:11:57.380Z,1.27
2018-07-13T20:14:26.337Z,1.10
2018-07-13T20:16:55.269Z,1.40
2018-07-13T20:19:24.145Z,1.30
2018-07-13T20:21:53.028Z,1.40
2018-07-13T20:24:21.942Z,1.20
2018-07-13T20:26:50.862Z,1.40
2018-07-13T20:29:19.728Z,1.22
2018-07-13T20:31:48.704Z,1.40
2018-07-13T20:34:17.620Z,1.45
2018-07-13T20:36:46.579Z,1.27
2018-07-13T20:39:15.480Z,1.15
2018-07-13T20:41:44.420Z,1.30
2018-07-13T20:44:13.397Z,1.20
2018-07-13T20:46:42.388Z,1.60
2018-07-13T20:49:11.337Z,1.40
2018-07-13T20:51:40.369Z,1.20
2018-07-13T20:54:09.427Z,1.32
2018-07-13T20:56:38.465Z,1.40
2018-07-13T20:59:07.579Z,1.30
2018-07-13T21:01:36.681Z,1.20
2018-07-13T21:04:05.704Z,1.30
2018-07-13T21:06:34.556Z,1.40
2018-07-13T21:09:03.466Z,1.47
2018-07-13T21:11:32.132Z,1.30
2018-07-13T21:14:00.812Z,1.30
2018-07-13T21:16:29.480Z,1.15
2018-07-13T21:18:58.156Z,1.47
2018-07-13T21:21:26.824Z,1.37
2018-07-13T21:23:55.484Z,1.32
2018-07-13T21:26:24.136Z,1.32
2018-07-13T21:28:52.809Z,1.20
2018-07-13T21:31:21.487Z,1.32
2018-07-13T21:33:50.203Z,1.00
2018-07-13T21:36:18.887Z,1.40
2018-07-13T21:38:47.628Z,1.20
2018-07-13T21:41:16.283Z,1.10
2018-07-13T21:43:44.965Z,1.20
2018-07-13T21:46:13.745Z,1.15
2018-07-13T21:48:42.560Z,1.30
2018-07-13T21:51:11.411Z,1.20
2018-07-13T21:53:40.317Z,1.30
2018-07-13T21:56:09.044Z,1.20
2018-07-13T21:58:38.005Z,1.25
2018-07-13T22:01:06.800Z,1.20
2018-07-13T22:03:35.720Z,1.22
2018-07-13T22:06:04.727Z,1.30
2018-07-13T22:08:33.504Z,1.10
2018-07-13T22:11:02.156Z,1.20
2018-07-13T22:13:30.807Z,1.35
2018-07-13T22:15:59.556Z,1.30
2018-07-13T22:18:28.199Z,1.10
2018-07-13T22:20:57.102Z,1.22
2018-07-13T22:23:25.797Z,1.40
2018-07-13T22:25:54.443Z,1.35
2018-07-13T22:28:23.112Z,1.30
2018-07-13T22:30:51.781Z,1.40
2018-07-13T22:33:20.440Z,1.67
2018-07-13T22:35:49.193Z,1.55
2018-07-13T22:38:17.845Z,1.30
2018-07-13T22:40:46.556Z,1.60
2018-07-13T22:43:15.258Z,1.50
2018-07-13T22:45:43.976Z,1.50
2018-07-13T22:48:12.768Z,1.40
2018-07-13T22:50:41.645Z,1.60
2018-07-13T22:53:10.368Z,1.42
2018-07-13T22:55:39.344Z,1.60
2018-07-13T22:58:08.095Z,1.80
2018-07-13T23:00:36.910Z,1.60
2018-07-13T23:03:06.374Z,1.65
2018-07-13T23:05:35.202Z,1.20
2018-07-13T23:08:03.946Z,1.57
2018-07-13T23:10:32.611Z,1.57
2018-07-13T23:13:01.275Z,1.52
2018-07-13T23:15:29.923Z,1.70
2018-07-13T23:17:58.608Z,1.60
2018-07-13T23:20:27.233Z,1.52
2018-07-13T23:22:55.940Z,1.70
2018-07-13T23:25:24.576Z,1.30
2018-07-13T23:27:53.228Z,1.57
2018-07-13T23:30:21.867Z,1.80
2018-07-13T23:32:50.521Z,1.47
2018-07-13T23:35:19.160Z,1.67
2018-07-13T23:37:47.888Z,1.62
2018-07-13T23:40:16.305Z,1.60
2018-07-13T23:42:44.965Z,1.77
2018-07-13T23:45:13.677Z,1.62
2018-07-13T23:47:42.703Z,1.50
2018-07-13T23:50:11.527Z,1.50
2018-07-13T23:52:40.417Z,1.80
2018-07-13T23:55:09.332Z,1.80
2018-07-13T23:57:38.380Z,1.90
